sensor_id;sensor_type;location;lat;lon;timestamp;temperature;humidity
84791;DHT22;75024;43.486;3.794;2024-01-30T00:01:43;10.50;88.00
84791;DHT22;75024;43.486;3.794;2024-01-30T00:04:08;10.50;88.00
84791;DHT22;75024;43.486;3.794;2024-01-30T00:06:34;10.40;88.20
84791;DHT22;75024;43.486;3.794;2024-01-30T00:09:00;10.40;88.30
84791;DHT22;75024;43.486;3.794;2024-01-30T00:11:25;10.40;88.40
84791;DHT22;75024;43.486;3.794;2024-01-30T00:13:52;10.40;88.50
84791;DHT22;75024;43.486;3.794;2024-01-30T00:16:24;10.50;88.50
84791;DHT22;75024;43.486;3.794;2024-01-30T00:18:53;10.50;88.50
84791;DHT22;75024;43.486;3.794;2024-01-30T00:21:20;10.50;88.50
84791;DHT22;75024;43.486;3.794;2024-01-30T00:23:46;10.50;88.40
84791;DHT22;75024;43.486;3.794;2024-01-30T00:26:12;10.50;88.30
84791;DHT22;75024;43.486;3.794;2024-01-30T00:28:40;10.50;88.30
84791;DHT22;75024;43.486;3.794;2024-01-30T00:31:06;10.50;88.40
84791;DHT22;75024;43.486;3.794;2024-01-30T00:33:32;10.60;88.40
84791;DHT22;75024;43.486;3.794;2024-01-30T00:35:57;10.60;88.40
84791;DHT22;75024;43.486;3.794;2024-01-30T00:38:23;10.60;88.30
84791;DHT22;75024;43.486;3.794;2024-01-30T00:40:49;10.60;88.10
84791;DHT22;75024;43.486;3.794;2024-01-30T00:43:15;10.60;88.00
84791;DHT22;75024;43.486;3.794;2024-01-30T00:45:41;10.60;88.00
84791;DHT22;75024;43.486;3.794;2024-01-30T00:48:08;10.50;88.10
84791;DHT22;75024;43.486;3.794;2024-01-30T00:50:34;10.50;88.20
84791;DHT22;75024;43.486;3.794;2024-01-30T00:53:00;10.50;88.20
84791;DHT22;75024;43.486;3.794;2024-01-30T00:55:25;10.50;88.30
84791;DHT22;75024;43.486;3.794;2024-01-30T00:57:51;10.50;88.40
84791;DHT22;75024;43.486;3.794;2024-01-30T01:00:16;10.50;88.50
84791;DHT22;75024;43.486;3.794;2024-01-30T01:02:43;10.50;88.60
84791;DHT22;75024;43.486;3.794;2024-01-30T01:05:09;10.50;88.90
84791;DHT22;75024;43.486;3.794;2024-01-30T01:07:35;10.50;89.00
84791;DHT22;75024;43.486;3.794;2024-01-30T01:10:00;10.50;88.70
84791;DHT22;75024;43.486;3.794;2024-01-30T01:12:26;10.40;88.60
84791;DHT22;75024;43.486;3.794;2024-01-30T01:14:52;10.40;88.60
84791;DHT22;75024;43.486;3.794;2024-01-30T01:17:17;10.40;88.80
84791;DHT22;75024;43.486;3.794;2024-01-30T01:19:44;10.50;89.00
84791;DHT22;75024;43.486;3.794;2024-01-30T01:22:10;10.50;88.80
84791;DHT22;75024;43.486;3.794;2024-01-30T01:24:36;10.60;88.70
84791;DHT22;75024;43.486;3.794;2024-01-30T01:27:02;10.60;88.80
84791;DHT22;75024;43.486;3.794;2024-01-30T01:29:28;10.70;88.70
84791;DHT22;75024;43.486;3.794;2024-01-30T01:31:55;10.60;88.30
84791;DHT22;75024;43.486;3.794;2024-01-30T01:34:21;10.60;88.20
84791;DHT22;75024;43.486;3.794;2024-01-30T01:36:47;10.60;88.30
84791;DHT22;75024;43.486;3.794;2024-01-30T01:39:13;10.60;88.30
84791;DHT22;75024;43.486;3.794;2024-01-30T01:41:39;10.60;87.90
84791;DHT22;75024;43.486;3.794;2024-01-30T01:44:04;10.60;87.80
84791;DHT22;75024;43.486;3.794;2024-01-30T01:46:33;10.50;87.80
84791;DHT22;75024;43.486;3.794;2024-01-30T01:49:00;10.50;87.70
84791;DHT22;75024;43.486;3.794;2024-01-30T01:51:28;10.40;87.80
84791;DHT22;75024;43.486;3.794;2024-01-30T01:53:56;10.40;87.80
84791;DHT22;75024;43.486;3.794;2024-01-30T01:56:23;10.30;87.80
84791;DHT22;75024;43.486;3.794;2024-01-30T01:58:50;10.20;88.10
84791;DHT22;75024;43.486;3.794;2024-01-30T02:01:19;10.10;88.40
84791;DHT22;75024;43.486;3.794;2024-01-30T02:03:46;10.10;88.60
84791;DHT22;75024;43.486;3.794;2024-01-30T02:06:13;10.00;88.70
84791;DHT22;75024;43.486;3.794;2024-01-30T02:08:40;9.90;88.90
84791;DHT22;75024;43.486;3.794;2024-01-30T02:11:06;9.90;89.10
84791;DHT22;75024;43.486;3.794;2024-01-30T02:13:32;9.80;89.20
84791;DHT22;75024;43.486;3.794;2024-01-30T02:15:57;9.80;89.30
84791;DHT22;75024;43.486;3.794;2024-01-30T02:18:23;9.70;89.50
84791;DHT22;75024;43.486;3.794;2024-01-30T02:20:49;9.70;89.60
84791;DHT22;75024;43.486;3.794;2024-01-30T02:23:19;9.70;89.60
84791;DHT22;75024;43.486;3.794;2024-01-30T02:25:45;9.70;89.60
84791;DHT22;75024;43.486;3.794;2024-01-30T02:28:12;9.70;89.60
84791;DHT22;75024;43.486;3.794;2024-01-30T02:30:38;9.70;89.40
84791;DHT22;75024;43.486;3.794;2024-01-30T02:33:04;9.70;89.30
84791;DHT22;75024;43.486;3.794;2024-01-30T02:35:30;9.80;89.20
84791;DHT22;75024;43.486;3.794;2024-01-30T02:37:56;9.80;89.00
84791;DHT22;75024;43.486;3.794;2024-01-30T02:40:21;9.80;88.90
84791;DHT22;75024;43.486;3.794;2024-01-30T02:42:47;9.80;88.80
84791;DHT22;75024;43.486;3.794;2024-01-30T02:45:13;9.70;88.80
84791;DHT22;75024;43.486;3.794;2024-01-30T02:47:39;9.70;88.70
84791;DHT22;75024;43.486;3.794;2024-01-30T02:50:06;9.70;88.70
84791;DHT22;75024;43.486;3.794;2024-01-30T02:52:32;9.70;88.80
84791;DHT22;75024;43.486;3.794;2024-01-30T02:54:57;9.70;88.70
84791;DHT22;75024;43.486;3.794;2024-01-30T02:57:23;9.60;88.70
84791;DHT22;75024;43.486;3.794;2024-01-30T02:59:49;9.60;88.60
84791;DHT22;75024;43.486;3.794;2024-01-30T03:02:14;9.60;88.60
84791;DHT22;75024;43.486;3.794;2024-01-30T03:04:43;9.50;88.60
84791;DHT22;75024;43.486;3.794;2024-01-30T03:07:09;9.50;88.60
84791;DHT22;75024;43.486;3.794;2024-01-30T03:09:36;9.50;88.60
84791;DHT22;75024;43.486;3.794;2024-01-30T03:12:02;9.50;88.60
84791;DHT22;75024;43.486;3.794;2024-01-30T03:14:30;9.40;88.60
84791;DHT22;75024;43.486;3.794;2024-01-30T03:16:56;9.40;88.70
84791;DHT22;75024;43.486;3.794;2024-01-30T03:19:22;9.30;88.70
84791;DHT22;75024;43.486;3.794;2024-01-30T03:21:47;9.30;88.60
84791;DHT22;75024;43.486;3.794;2024-01-30T03:24:13;9.30;88.60
84791;DHT22;75024;43.486;3.794;2024-01-30T03:26:38;9.30;88.60
84791;DHT22;75024;43.486;3.794;2024-01-30T03:29:04;9.30;88.60
84791;DHT22;75024;43.486;3.794;2024-01-30T03:31:30;9.30;88.50
84791;DHT22;75024;43.486;3.794;2024-01-30T03:33:55;9.30;88.50
84791;DHT22;75024;43.486;3.794;2024-01-30T03:36:21;9.20;88.50
84791;DHT22;75024;43.486;3.794;2024-01-30T03:38:47;9.20;88.50
84791;DHT22;75024;43.486;3.794;2024-01-30T03:41:12;9.20;88.60
84791;DHT22;75024;43.486;3.794;2024-01-30T03:43:38;9.10;88.50
84791;DHT22;75024;43.486;3.794;2024-01-30T03:46:04;9.20;88.40
84791;DHT22;75024;43.486;3.794;2024-01-30T03:48:30;9.20;88.50
84791;DHT22;75024;43.486;3.794;2024-01-30T03:50:55;9.20;88.30
84791;DHT22;75024;43.486;3.794;2024-01-30T03:53:21;9.20;88.30
84791;DHT22;75024;43.486;3.794;2024-01-30T03:55:47;9.20;88.30
84791;DHT22;75024;43.486;3.794;2024-01-30T03:58:13;9.20;88.20
84791;DHT22;75024;43.486;3.794;2024-01-30T04:00:39;9.20;88.20
84791;DHT22;75024;43.486;3.794;2024-01-30T04:03:04;9.20;88.10
84791;DHT22;75024;43.486;3.794;2024-01-30T04:05:30;9.20;88.00
84791;DHT22;75024;43.486;3.794;2024-01-30T04:07:56;9.20;87.90
84791;DHT22;75024;43.486;3.794;2024-01-30T04:10:21;9.30;87.70
84791;DHT22;75024;43.486;3.794;2024-01-30T04:12:47;9.30;87.70
84791;DHT22;75024;43.486;3.794;2024-01-30T04:15:13;9.30;87.50
84791;DHT22;75024;43.486;3.794;2024-01-30T04:17:39;9.30;87.50
84791;DHT22;75024;43.486;3.794;2024-01-30T04:20:06;9.30;87.40
84791;DHT22;75024;43.486;3.794;2024-01-30T04:22:32;9.20;87.40
84791;DHT22;75024;43.486;3.794;2024-01-30T04:24:57;9.20;87.40
84791;DHT22;75024;43.486;3.794;2024-01-30T04:27:23;9.20;87.40
84791;DHT22;75024;43.486;3.794;2024-01-30T04:29:49;9.20;87.40
84791;DHT22;75024;43.486;3.794;2024-01-30T04:32:14;9.20;87.30
84791;DHT22;75024;43.486;3.794;2024-01-30T04:34:40;9.20;87.20
84791;DHT22;75024;43.486;3.794;2024-01-30T04:37:06;9.20;87.10
84791;DHT22;75024;43.486;3.794;2024-01-30T04:39:33;9.10;87.10
84791;DHT22;75024;43.486;3.794;2024-01-30T04:41:59;9.10;87.10
84791;DHT22;75024;43.486;3.794;2024-01-30T04:44:25;9.10;87.20
84791;DHT22;75024;43.486;3.794;2024-01-30T04:46:50;9.10;87.10
84791;DHT22;75024;43.486;3.794;2024-01-30T04:49:16;9.10;86.80
84791;DHT22;75024;43.486;3.794;2024-01-30T04:51:42;9.10;86.60
84791;DHT22;75024;43.486;3.794;2024-01-30T04:54:07;9.20;86.50
84791;DHT22;75024;43.486;3.794;2024-01-30T04:56:33;9.10;85.90
84791;DHT22;75024;43.486;3.794;2024-01-30T04:58:59;9.00;85.80
84791;DHT22;75024;43.486;3.794;2024-01-30T05:01:25;9.00;86.00
84791;DHT22;75024;43.486;3.794;2024-01-30T05:03:51;8.90;86.10
84791;DHT22;75024;43.486;3.794;2024-01-30T05:06:27;8.90;86.20
84791;DHT22;75024;43.486;3.794;2024-01-30T05:08:53;8.90;86.20
84791;DHT22;75024;43.486;3.794;2024-01-30T05:11:19;8.80;86.20
84791;DHT22;75024;43.486;3.794;2024-01-30T05:13:45;8.80;86.10
84791;DHT22;75024;43.486;3.794;2024-01-30T05:16:10;8.80;86.10
84791;DHT22;75024;43.486;3.794;2024-01-30T05:18:36;8.90;85.80
84791;DHT22;75024;43.486;3.794;2024-01-30T05:21:02;8.90;85.70
84791;DHT22;75024;43.486;3.794;2024-01-30T05:23:29;8.80;85.50
84791;DHT22;75024;43.486;3.794;2024-01-30T05:25:54;8.80;85.60
84791;DHT22;75024;43.486;3.794;2024-01-30T05:28:20;8.90;85.50
84791;DHT22;75024;43.486;3.794;2024-01-30T05:30:46;8.90;85.30
84791;DHT22;75024;43.486;3.794;2024-01-30T05:33:11;8.90;85.10
84791;DHT22;75024;43.486;3.794;2024-01-30T05:35:38;8.80;85.30
84791;DHT22;75024;43.486;3.794;2024-01-30T05:38:04;8.80;85.20
84791;DHT22;75024;43.486;3.794;2024-01-30T05:40:32;8.70;85.20
84791;DHT22;75024;43.486;3.794;2024-01-30T05:42:58;8.60;85.50
84791;DHT22;75024;43.486;3.794;2024-01-30T05:45:26;8.60;85.50
84791;DHT22;75024;43.486;3.794;2024-01-30T05:47:52;8.60;85.90
84791;DHT22;75024;43.486;3.794;2024-01-30T05:50:19;8.60;85.50
84791;DHT22;75024;43.486;3.794;2024-01-30T05:52:45;8.60;85.30
84791;DHT22;75024;43.486;3.794;2024-01-30T05:55:11;8.50;85.40
84791;DHT22;75024;43.486;3.794;2024-01-30T05:57:38;8.40;85.50
84791;DHT22;75024;43.486;3.794;2024-01-30T06:00:05;8.40;85.90
84791;DHT22;75024;43.486;3.794;2024-01-30T06:02:31;8.30;86.00
84791;DHT22;75024;43.486;3.794;2024-01-30T06:04:57;8.30;86.20
84791;DHT22;75024;43.486;3.794;2024-01-30T06:07:22;8.30;86.00
84791;DHT22;75024;43.486;3.794;2024-01-30T06:09:48;8.30;85.80
84791;DHT22;75024;43.486;3.794;2024-01-30T06:12:14;8.40;85.60
84791;DHT22;75024;43.486;3.794;2024-01-30T06:14:39;8.40;85.10
84791;DHT22;75024;43.486;3.794;2024-01-30T06:17:08;8.50;84.90
84791;DHT22;75024;43.486;3.794;2024-01-30T06:19:33;8.50;84.50
84791;DHT22;75024;43.486;3.794;2024-01-30T06:21:59;8.50;84.30
84791;DHT22;75024;43.486;3.794;2024-01-30T06:24:25;8.50;84.00
84791;DHT22;75024;43.486;3.794;2024-01-30T06:26:50;8.50;84.10
84791;DHT22;75024;43.486;3.794;2024-01-30T06:29:16;8.50;83.90
84791;DHT22;75024;43.486;3.794;2024-01-30T06:31:42;8.50;83.80
84791;DHT22;75024;43.486;3.794;2024-01-30T06:34:11;8.40;83.50
84791;DHT22;75024;43.486;3.794;2024-01-30T06:36:37;8.40;83.70
84791;DHT22;75024;43.486;3.794;2024-01-30T06:39:03;8.40;83.80
84791;DHT22;75024;43.486;3.794;2024-01-30T06:41:29;8.40;83.40
84791;DHT22;75024;43.486;3.794;2024-01-30T06:43:56;8.40;83.60
84791;DHT22;75024;43.486;3.794;2024-01-30T06:46:22;8.40;83.50
84791;DHT22;75024;43.486;3.794;2024-01-30T06:48:47;8.40;83.50
84791;DHT22;75024;43.486;3.794;2024-01-30T06:51:13;8.40;83.50
84791;DHT22;75024;43.486;3.794;2024-01-30T06:53:39;8.40;83.40
84791;DHT22;75024;43.486;3.794;2024-01-30T06:56:05;8.30;83.50
84791;DHT22;75024;43.486;3.794;2024-01-30T06:58:31;8.40;83.20
84791;DHT22;75024;43.486;3.794;2024-01-30T07:00:58;8.40;83.10
84791;DHT22;75024;43.486;3.794;2024-01-30T07:03:24;8.30;83.10
84791;DHT22;75024;43.486;3.794;2024-01-30T07:05:50;8.40;83.30
84791;DHT22;75024;43.486;3.794;2024-01-30T07:08:16;8.40;82.90
84791;DHT22;75024;43.486;3.794;2024-01-30T07:10:43;8.40;83.00
84791;DHT22;75024;43.486;3.794;2024-01-30T07:13:10;8.40;82.80
84791;DHT22;75024;43.486;3.794;2024-01-30T07:15:35;8.40;82.80
84791;DHT22;75024;43.486;3.794;2024-01-30T07:18:02;8.50;82.70
84791;DHT22;75024;43.486;3.794;2024-01-30T07:20:28;8.50;82.40
84791;DHT22;75024;43.486;3.794;2024-01-30T07:22:56;8.60;82.10
84791;DHT22;75024;43.486;3.794;2024-01-30T07:25:21;8.50;82.00
84791;DHT22;75024;43.486;3.794;2024-01-30T07:27:55;8.50;82.10
84791;DHT22;75024;43.486;3.794;2024-01-30T07:30:21;8.60;81.70
84791;DHT22;75024;43.486;3.794;2024-01-30T07:32:47;8.60;81.80
84791;DHT22;75024;43.486;3.794;2024-01-30T07:35:13;8.60;81.60
84791;DHT22;75024;43.486;3.794;2024-01-30T07:37:39;8.60;81.60
84791;DHT22;75024;43.486;3.794;2024-01-30T07:40:05;8.60;81.40
84791;DHT22;75024;43.486;3.794;2024-01-30T07:42:32;8.60;81.40
84791;DHT22;75024;43.486;3.794;2024-01-30T07:44:58;8.60;81.20
84791;DHT22;75024;43.486;3.794;2024-01-30T07:47:24;8.70;81.10
84791;DHT22;75024;43.486;3.794;2024-01-30T07:49:50;8.70;81.10
84791;DHT22;75024;43.486;3.794;2024-01-30T07:52:16;8.70;81.30
84791;DHT22;75024;43.486;3.794;2024-01-30T07:54:49;8.70;81.00
84791;DHT22;75024;43.486;3.794;2024-01-30T07:57:14;8.70;81.00
84791;DHT22;75024;43.486;3.794;2024-01-30T07:59:42;8.70;81.10
84791;DHT22;75024;43.486;3.794;2024-01-30T08:02:09;8.70;81.30
84791;DHT22;75024;43.486;3.794;2024-01-30T08:04:35;8.70;81.00
84791;DHT22;75024;43.486;3.794;2024-01-30T08:07:01;8.70;80.60
84791;DHT22;75024;43.486;3.794;2024-01-30T08:09:27;8.70;80.20
84791;DHT22;75024;43.486;3.794;2024-01-30T08:11:52;8.60;80.40
84791;DHT22;75024;43.486;3.794;2024-01-30T08:14:18;8.70;80.10
84791;DHT22;75024;43.486;3.794;2024-01-30T08:16:44;8.70;80.00
84791;DHT22;75024;43.486;3.794;2024-01-30T08:19:10;8.70;80.10
84791;DHT22;75024;43.486;3.794;2024-01-30T08:21:35;8.70;80.10
84791;DHT22;75024;43.486;3.794;2024-01-30T08:24:04;8.70;80.00
84791;DHT22;75024;43.486;3.794;2024-01-30T08:26:31;8.70;79.80
84791;DHT22;75024;43.486;3.794;2024-01-30T08:28:57;8.80;79.70
84791;DHT22;75024;43.486;3.794;2024-01-30T08:31:23;8.80;79.50
84791;DHT22;75024;43.486;3.794;2024-01-30T08:33:49;8.90;79.50
84791;DHT22;75024;43.486;3.794;2024-01-30T08:36:16;8.90;79.30
84791;DHT22;75024;43.486;3.794;2024-01-30T08:38:41;9.00;79.20
84791;DHT22;75024;43.486;3.794;2024-01-30T08:41:07;9.10;79.20
84791;DHT22;75024;43.486;3.794;2024-01-30T08:43:33;9.20;78.90
84791;DHT22;75024;43.486;3.794;2024-01-30T08:46:00;9.20;78.80
84791;DHT22;75024;43.486;3.794;2024-01-30T08:48:26;9.20;79.00
84791;DHT22;75024;43.486;3.794;2024-01-30T08:50:52;9.30;78.40
84791;DHT22;75024;43.486;3.794;2024-01-30T08:53:17;9.30;77.90
84791;DHT22;75024;43.486;3.794;2024-01-30T08:55:44;9.30;77.60
84791;DHT22;75024;43.486;3.794;2024-01-30T08:58:10;9.40;77.80
84791;DHT22;75024;43.486;3.794;2024-01-30T09:00:36;9.50;77.20
84791;DHT22;75024;43.486;3.794;2024-01-30T09:03:02;9.50;76.90
84791;DHT22;75024;43.486;3.794;2024-01-30T09:05:28;9.50;77.30
84791;DHT22;75024;43.486;3.794;2024-01-30T09:07:53;9.60;77.40
84791;DHT22;75024;43.486;3.794;2024-01-30T09:10:19;9.70;77.20
84791;DHT22;75024;43.486;3.794;2024-01-30T09:12:46;9.80;77.00
84791;DHT22;75024;43.486;3.794;2024-01-30T09:15:12;9.80;77.10
84791;DHT22;75024;43.486;3.794;2024-01-30T09:17:37;9.90;76.90
84791;DHT22;75024;43.486;3.794;2024-01-30T09:20:04;10.20;76.40
84791;DHT22;75024;43.486;3.794;2024-01-30T09:22:30;10.30;76.10
84791;DHT22;75024;43.486;3.794;2024-01-30T09:24:55;10.50;75.60
84791;DHT22;75024;43.486;3.794;2024-01-30T09:27:21;10.40;75.80
84791;DHT22;75024;43.486;3.794;2024-01-30T09:29:47;10.60;75.70
84791;DHT22;75024;43.486;3.794;2024-01-30T09:32:12;10.70;75.20
84791;DHT22;75024;43.486;3.794;2024-01-30T09:34:38;10.80;74.60
84791;DHT22;75024;43.486;3.794;2024-01-30T09:37:04;10.80;74.70
84791;DHT22;75024;43.486;3.794;2024-01-30T09:39:30;10.80;74.30
84791;DHT22;75024;43.486;3.794;2024-01-30T09:45:05;10.80;73.90
84791;DHT22;75024;43.486;3.794;2024-01-30T09:47:41;11.00;73.50
84791;DHT22;75024;43.486;3.794;2024-01-30T09:50:15;11.10;73.50
84791;DHT22;75024;43.486;3.794;2024-01-30T09:52:41;11.10;73.10
84791;DHT22;75024;43.486;3.794;2024-01-30T09:55:07;11.30;73.30
84791;DHT22;75024;43.486;3.794;2024-01-30T09:57:34;11.30;73.30
84791;DHT22;75024;43.486;3.794;2024-01-30T10:00:00;11.30;72.70
84791;DHT22;75024;43.486;3.794;2024-01-30T10:02:25;11.10;73.60
84791;DHT22;75024;43.486;3.794;2024-01-30T10:04:52;11.00;74.40
84791;DHT22;75024;43.486;3.794;2024-01-30T10:07:18;10.90;74.70
84791;DHT22;75024;43.486;3.794;2024-01-30T10:09:44;10.90;75.00
84791;DHT22;75024;43.486;3.794;2024-01-30T10:12:11;11.00;74.60
84791;DHT22;75024;43.486;3.794;2024-01-30T10:14:40;11.10;74.70
84791;DHT22;75024;43.486;3.794;2024-01-30T10:17:09;11.20;74.50
84791;DHT22;75024;43.486;3.794;2024-01-30T10:19:36;11.30;74.20
84791;DHT22;75024;43.486;3.794;2024-01-30T10:22:03;11.30;73.70
84791;DHT22;75024;43.486;3.794;2024-01-30T10:24:28;11.40;73.60
84791;DHT22;75024;43.486;3.794;2024-01-30T10:26:57;11.40;73.40
84791;DHT22;75024;43.486;3.794;2024-01-30T10:29:23;11.50;73.20
84791;DHT22;75024;43.486;3.794;2024-01-30T10:31:59;11.50;72.70
84791;DHT22;75024;43.486;3.794;2024-01-30T10:34:25;11.30;73.50
84791;DHT22;75024;43.486;3.794;2024-01-30T10:37:16;11.30;73.60
84791;DHT22;75024;43.486;3.794;2024-01-30T10:39:42;11.40;73.10
84791;DHT22;75024;43.486;3.794;2024-01-30T10:42:17;11.60;72.60
84791;DHT22;75024;43.486;3.794;2024-01-30T10:47:25;11.90;71.60
84791;DHT22;75024;43.486;3.794;2024-01-30T10:49:52;12.00;71.10
84791;DHT22;75024;43.486;3.794;2024-01-30T10:52:18;11.90;71.10
84791;DHT22;75024;43.486;3.794;2024-01-30T10:54:45;11.80;71.20
84791;DHT22;75024;43.486;3.794;2024-01-30T10:57:11;11.60;71.40
84791;DHT22;75024;43.486;3.794;2024-01-30T10:59:38;11.60;72.10
84791;DHT22;75024;43.486;3.794;2024-01-30T11:02:05;11.80;71.70
84791;DHT22;75024;43.486;3.794;2024-01-30T11:04:38;11.60;71.70
84791;DHT22;75024;43.486;3.794;2024-01-30T11:07:16;11.80;71.70
84791;DHT22;75024;43.486;3.794;2024-01-30T11:09:53;11.90;71.00
84791;DHT22;75024;43.486;3.794;2024-01-30T11:12:23;11.90;71.20
84791;DHT22;75024;43.486;3.794;2024-01-30T11:14:49;12.00;70.70
84791;DHT22;75024;43.486;3.794;2024-01-30T11:17:15;11.80;71.60
84791;DHT22;75024;43.486;3.794;2024-01-30T11:19:41;11.80;71.00
84791;DHT22;75024;43.486;3.794;2024-01-30T11:22:10;11.80;71.80
84791;DHT22;75024;43.486;3.794;2024-01-30T11:24:43;11.90;71.70
84791;DHT22;75024;43.486;3.794;2024-01-30T11:27:09;12.00;71.80
84791;DHT22;75024;43.486;3.794;2024-01-30T11:29:38;12.10;71.50
84791;DHT22;75024;43.486;3.794;2024-01-30T11:32:05;12.10;71.20
84791;DHT22;75024;43.486;3.794;2024-01-30T11:34:32;12.20;71.00
84791;DHT22;75024;43.486;3.794;2024-01-30T11:37:06;12.10;71.40
84791;DHT22;75024;43.486;3.794;2024-01-30T11:39:36;12.00;71.60
84791;DHT22;75024;43.486;3.794;2024-01-30T11:42:03;11.90;72.30
84791;DHT22;75024;43.486;3.794;2024-01-30T11:44:31;12.00;72.50
84791;DHT22;75024;43.486;3.794;2024-01-30T11:46:56;12.00;72.70
84791;DHT22;75024;43.486;3.794;2024-01-30T11:49:23;11.90;72.60
84791;DHT22;75024;43.486;3.794;2024-01-30T11:51:49;11.90;72.90
84791;DHT22;75024;43.486;3.794;2024-01-30T11:54:16;11.90;72.70
84791;DHT22;75024;43.486;3.794;2024-01-30T11:56:42;12.00;72.50
84791;DHT22;75024;43.486;3.794;2024-01-30T11:59:08;12.00;72.60
84791;DHT22;75024;43.486;3.794;2024-01-30T12:01:34;12.00;72.90
84791;DHT22;75024;43.486;3.794;2024-01-30T12:04:00;12.10;73.00
84791;DHT22;75024;43.486;3.794;2024-01-30T12:06:27;12.20;72.80
84791;DHT22;75024;43.486;3.794;2024-01-30T12:08:57;12.10;73.70
84791;DHT22;75024;43.486;3.794;2024-01-30T12:11:24;12.30;73.00
84791;DHT22;75024;43.486;3.794;2024-01-30T12:13:51;12.30;73.10
84791;DHT22;75024;43.486;3.794;2024-01-30T12:16:17;12.30;73.40
84791;DHT22;75024;43.486;3.794;2024-01-30T12:18:42;12.20;74.10
84791;DHT22;75024;43.486;3.794;2024-01-30T12:21:08;12.30;74.00
84791;DHT22;75024;43.486;3.794;2024-01-30T12:23:35;12.20;74.50
84791;DHT22;75024;43.486;3.794;2024-01-30T12:26:01;12.20;75.10
84791;DHT22;75024;43.486;3.794;2024-01-30T12:28:29;12.30;75.40
84791;DHT22;75024;43.486;3.794;2024-01-30T12:31:01;12.30;75.30
84791;DHT22;75024;43.486;3.794;2024-01-30T12:33:27;12.50;75.30
84791;DHT22;75024;43.486;3.794;2024-01-30T12:35:54;12.50;75.70
84791;DHT22;75024;43.486;3.794;2024-01-30T12:38:19;12.60;75.60
84791;DHT22;75024;43.486;3.794;2024-01-30T12:40:45;12.60;75.80
84791;DHT22;75024;43.486;3.794;2024-01-30T12:43:13;12.60;76.00
84791;DHT22;75024;43.486;3.794;2024-01-30T12:45:40;12.70;76.30
84791;DHT22;75024;43.486;3.794;2024-01-30T12:48:06;12.80;76.30
84791;DHT22;75024;43.486;3.794;2024-01-30T12:50:32;12.80;76.50
84791;DHT22;75024;43.486;3.794;2024-01-30T12:52:58;13.00;76.40
84791;DHT22;75024;43.486;3.794;2024-01-30T12:55:24;13.00;76.70
84791;DHT22;75024;43.486;3.794;2024-01-30T12:57:52;13.10;76.50
84791;DHT22;75024;43.486;3.794;2024-01-30T13:00:18;13.10;76.50
84791;DHT22;75024;43.486;3.794;2024-01-30T13:02:43;13.10;76.70
84791;DHT22;75024;43.486;3.794;2024-01-30T13:05:10;13.20;76.50
84791;DHT22;75024;43.486;3.794;2024-01-30T13:07:36;13.30;76.40
84791;DHT22;75024;43.486;3.794;2024-01-30T13:10:02;13.40;75.80
84791;DHT22;75024;43.486;3.794;2024-01-30T13:12:30;13.50;75.80
84791;DHT22;75024;43.486;3.794;2024-01-30T13:14:57;13.50;75.60
84791;DHT22;75024;43.486;3.794;2024-01-30T13:17:23;13.50;75.70
84791;DHT22;75024;43.486;3.794;2024-01-30T13:19:49;13.60;75.70
84791;DHT22;75024;43.486;3.794;2024-01-30T13:22:15;13.50;75.40
84791;DHT22;75024;43.486;3.794;2024-01-30T13:24:41;13.40;76.00
84791;DHT22;75024;43.486;3.794;2024-01-30T13:27:07;13.40;75.90
84791;DHT22;75024;43.486;3.794;2024-01-30T13:29:32;13.40;76.20
84791;DHT22;75024;43.486;3.794;2024-01-30T13:31:58;13.20;76.60
84791;DHT22;75024;43.486;3.794;2024-01-30T13:34:24;13.20;76.90
84791;DHT22;75024;43.486;3.794;2024-01-30T13:36:50;13.10;77.30
84791;DHT22;75024;43.486;3.794;2024-01-30T13:39:16;13.20;77.20
84791;DHT22;75024;43.486;3.794;2024-01-30T13:41:42;13.20;77.10
84791;DHT22;75024;43.486;3.794;2024-01-30T13:44:08;13.20;77.20
84791;DHT22;75024;43.486;3.794;2024-01-30T13:46:35;13.20;76.80
84791;DHT22;75024;43.486;3.794;2024-01-30T13:49:01;13.20;77.10
84791;DHT22;75024;43.486;3.794;2024-01-30T13:51:27;13.30;76.90
84791;DHT22;75024;43.486;3.794;2024-01-30T13:53:53;13.30;76.70
84791;DHT22;75024;43.486;3.794;2024-01-30T13:56:22;13.30;76.40
84791;DHT22;75024;43.486;3.794;2024-01-30T13:58:50;13.30;76.40
84791;DHT22;75024;43.486;3.794;2024-01-30T14:01:16;13.30;76.60
84791;DHT22;75024;43.486;3.794;2024-01-30T14:03:42;13.30;76.60
84791;DHT22;75024;43.486;3.794;2024-01-30T14:06:08;13.30;76.60
84791;DHT22;75024;43.486;3.794;2024-01-30T14:08:33;13.20;76.70
84791;DHT22;75024;43.486;3.794;2024-01-30T14:10:59;13.20;76.90
84791;DHT22;75024;43.486;3.794;2024-01-30T14:13:25;13.20;76.90
84791;DHT22;75024;43.486;3.794;2024-01-30T14:15:53;13.10;77.10
84791;DHT22;75024;43.486;3.794;2024-01-30T14:18:19;13.10;77.20
84791;DHT22;75024;43.486;3.794;2024-01-30T14:20:45;13.10;76.80
84791;DHT22;75024;43.486;3.794;2024-01-30T14:23:11;13.00;76.70
84791;DHT22;75024;43.486;3.794;2024-01-30T14:25:37;12.80;77.30
84791;DHT22;75024;43.486;3.794;2024-01-30T14:28:03;12.90;77.30
84791;DHT22;75024;43.486;3.794;2024-01-30T14:30:28;12.90;77.10
84791;DHT22;75024;43.486;3.794;2024-01-30T14:32:54;12.90;77.20
84791;DHT22;75024;43.486;3.794;2024-01-30T14:35:21;12.80;77.20
84791;DHT22;75024;43.486;3.794;2024-01-30T14:37:47;12.80;77.40
84791;DHT22;75024;43.486;3.794;2024-01-30T14:40:12;12.90;77.40
84791;DHT22;75024;43.486;3.794;2024-01-30T14:42:38;12.90;77.50
84791;DHT22;75024;43.486;3.794;2024-01-30T14:45:05;13.00;77.10
84791;DHT22;75024;43.486;3.794;2024-01-30T14:47:31;12.90;77.40
84791;DHT22;75024;43.486;3.794;2024-01-30T14:49:57;12.90;77.60
84791;DHT22;75024;43.486;3.794;2024-01-30T14:52:23;12.90;77.80
84791;DHT22;75024;43.486;3.794;2024-01-30T14:54:49;12.90;77.70
84791;DHT22;75024;43.486;3.794;2024-01-30T14:57:15;12.80;78.00
84791;DHT22;75024;43.486;3.794;2024-01-30T14:59:40;12.80;78.10
84791;DHT22;75024;43.486;3.794;2024-01-30T15:02:06;12.80;78.00
84791;DHT22;75024;43.486;3.794;2024-01-30T15:04:32;12.90;78.00
84791;DHT22;75024;43.486;3.794;2024-01-30T15:06:58;12.80;77.90
84791;DHT22;75024;43.486;3.794;2024-01-30T15:09:23;12.70;78.10
84791;DHT22;75024;43.486;3.794;2024-01-30T15:11:52;12.70;78.30
84791;DHT22;75024;43.486;3.794;2024-01-30T15:14:18;12.70;78.40
84791;DHT22;75024;43.486;3.794;2024-01-30T15:16:44;12.70;78.60
84791;DHT22;75024;43.486;3.794;2024-01-30T15:19:10;12.70;78.40
84791;DHT22;75024;43.486;3.794;2024-01-30T15:21:36;12.60;78.60
84791;DHT22;75024;43.486;3.794;2024-01-30T15:24:02;12.70;78.70
84791;DHT22;75024;43.486;3.794;2024-01-30T15:26:28;12.60;78.60
84791;DHT22;75024;43.486;3.794;2024-01-30T15:28:54;12.60;78.80
84791;DHT22;75024;43.486;3.794;2024-01-30T15:31:20;12.60;78.90
84791;DHT22;75024;43.486;3.794;2024-01-30T15:33:46;12.60;78.60
84791;DHT22;75024;43.486;3.794;2024-01-30T15:36:12;12.60;78.40
84791;DHT22;75024;43.486;3.794;2024-01-30T15:38:39;12.60;78.30